sensor_id;sensor_type;location;lat;lon;timestamp;temperature;humidity
12817;DHT22;6473;51.552;6.716;2023-03-23T00:00:13;12.10;99.90
12817;DHT22;6473;51.552;6.716;2023-03-23T00:02:40;12.10;99.90
12817;DHT22;6473;51.552;6.716;2023-03-23T00:05:09;12.10;99.90
12817;DHT22;6473;51.552;6.716;2023-03-23T00:07:36;13.20;99.90
12817;DHT22;6473;51.552;6.716;2023-03-23T00:10:07;13.40;99.90
12817;DHT22;6473;51.552;6.716;2023-03-23T00:12:36;12.10;99.90
12817;DHT22;6473;51.552;6.716;2023-03-23T00:15:10;12.20;99.90
12817;DHT22;6473;51.552;6.716;2023-03-23T00:17:45;12.20;99.90
12817;DHT22;6473;51.552;6.716;2023-03-23T00:20:13;12.20;99.90
12817;DHT22;6473;51.552;6.716;2023-03-23T00:22:41;12.30;99.90
12817;DHT22;6473;51.552;6.716;2023-03-23T00:25:08;12.40;99.90
12817;DHT22;6473;51.552;6.716;2023-03-23T00:27:37;12.30;99.90
12817;DHT22;6473;51.552;6.716;2023-03-23T00:30:10;12.30;99.90
12817;DHT22;6473;51.552;6.716;2023-03-23T00:32:40;12.30;99.90
12817;DHT22;6473;51.552;6.716;2023-03-23T00:35:08;12.30;99.90
12817;DHT22;6473;51.552;6.716;2023-03-23T00:37:36;12.40;99.90
12817;DHT22;6473;51.552;6.716;2023-03-23T00:40:03;13.10;99.90
12817;DHT22;6473;51.552;6.716;2023-03-23T00:42:37;12.20;99.90
12817;DHT22;6473;51.552;6.716;2023-03-23T00:45:07;12.80;99.90
12817;DHT22;6473;51.552;6.716;2023-03-23T00:47:38;12.30;99.90
12817;DHT22;6473;51.552;6.716;2023-03-23T00:50:08;12.30;99.90
12817;DHT22;6473;51.552;6.716;2023-03-23T00:52:38;12.30;99.90
12817;DHT22;6473;51.552;6.716;2023-03-23T00:55:07;12.30;99.90
12817;DHT22;6473;51.552;6.716;2023-03-23T00:57:35;12.40;99.90
12817;DHT22;6473;51.552;6.716;2023-03-23T01:00:05;12.50;99.90
12817;DHT22;6473;51.552;6.716;2023-03-23T01:02:36;12.30;99.90
12817;DHT22;6473;51.552;6.716;2023-03-23T01:05:08;12.50;99.90
12817;DHT22;6473;51.552;6.716;2023-03-23T01:07:36;12.40;99.90
12817;DHT22;6473;51.552;6.716;2023-03-23T01:10:04;12.50;99.90
12817;DHT22;6473;51.552;6.716;2023-03-23T01:12:33;12.40;99.90
12817;DHT22;6473;51.552;6.716;2023-03-23T01:15:00;12.50;99.90
12817;DHT22;6473;51.552;6.716;2023-03-23T01:17:28;12.60;99.90
12817;DHT22;6473;51.552;6.716;2023-03-23T01:19:56;12.50;99.90
12817;DHT22;6473;51.552;6.716;2023-03-23T01:22:23;13.00;99.90
12817;DHT22;6473;51.552;6.716;2023-03-23T01:24:50;12.60;99.90
12817;DHT22;6473;51.552;6.716;2023-03-23T01:27:17;12.50;99.90
12817;DHT22;6473;51.552;6.716;2023-03-23T01:29:44;14.00;99.90
12817;DHT22;6473;51.552;6.716;2023-03-23T01:32:13;13.40;99.90
12817;DHT22;6473;51.552;6.716;2023-03-23T01:34:43;12.50;99.90
12817;DHT22;6473;51.552;6.716;2023-03-23T01:37:10;13.10;99.90
12817;DHT22;6473;51.552;6.716;2023-03-23T01:39:37;12.50;99.90
12817;DHT22;6473;51.552;6.716;2023-03-23T01:42:04;14.50;99.90
12817;DHT22;6473;51.552;6.716;2023-03-23T01:48:00;12.50;99.90
12817;DHT22;6473;51.552;6.716;2023-03-23T01:50:34;12.50;99.90
12817;DHT22;6473;51.552;6.716;2023-03-23T01:53:05;12.50;99.90
12817;DHT22;6473;51.552;6.716;2023-03-23T01:55:36;12.40;99.90
12817;DHT22;6473;51.552;6.716;2023-03-23T01:58:07;13.30;99.90
12817;DHT22;6473;51.552;6.716;2023-03-23T02:00:36;12.30;99.90
12817;DHT22;6473;51.552;6.716;2023-03-23T02:03:07;12.30;99.90
12817;DHT22;6473;51.552;6.716;2023-03-23T02:05:40;12.30;99.90
12817;DHT22;6473;51.552;6.716;2023-03-23T02:08:17;12.30;99.90
12817;DHT22;6473;51.552;6.716;2023-03-23T02:10:45;12.30;99.90
12817;DHT22;6473;51.552;6.716;2023-03-23T02:13:13;12.20;99.90
12817;DHT22;6473;51.552;6.716;2023-03-23T02:15:47;14.40;99.90
12817;DHT22;6473;51.552;6.716;2023-03-23T02:18:25;12.30;99.90
12817;DHT22;6473;51.552;6.716;2023-03-23T02:21:14;12.30;99.90
12817;DHT22;6473;51.552;6.716;2023-03-23T02:24:19;12.20;99.90
12817;DHT22;6473;51.552;6.716;2023-03-23T02:26:56;13.90;99.90
12817;DHT22;6473;51.552;6.716;2023-03-23T02:32:50;12.20;99.90
12817;DHT22;6473;51.552;6.716;2023-03-23T02:35:24;12.20;99.90
12817;DHT22;6473;51.552;6.716;2023-03-23T02:38:01;12.20;99.90
12817;DHT22;6473;51.552;6.716;2023-03-23T02:40:32;11.00;99.90
12817;DHT22;6473;51.552;6.716;2023-03-23T02:43:00;12.30;99.90
12817;DHT22;6473;51.552;6.716;2023-03-23T02:45:31;12.50;99.90
12817;DHT22;6473;51.552;6.716;2023-03-23T02:48:02;12.50;99.90
12817;DHT22;6473;51.552;6.716;2023-03-23T02:50:34;12.20;99.90
12817;DHT22;6473;51.552;6.716;2023-03-23T02:53:07;12.10;99.90
12817;DHT22;6473;51.552;6.716;2023-03-23T02:55:36;13.70;99.90
12817;DHT22;6473;51.552;6.716;2023-03-23T02:58:09;12.30;99.90
12817;DHT22;6473;51.552;6.716;2023-03-23T03:00:37;12.20;99.90
12817;DHT22;6473;51.552;6.716;2023-03-23T03:03:05;12.10;99.90
12817;DHT22;6473;51.552;6.716;2023-03-23T03:05:40;10.20;99.90
12817;DHT22;6473;51.552;6.716;2023-03-23T03:08:20;12.20;99.90
12817;DHT22;6473;51.552;6.716;2023-03-23T03:10:54;13.90;99.90
12817;DHT22;6473;51.552;6.716;2023-03-23T03:13:34;13.40;99.90
12817;DHT22;6473;51.552;6.716;2023-03-23T03:16:13;13.40;99.90
12817;DHT22;6473;51.552;6.716;2023-03-23T03:18:46;12.10;99.90
12817;DHT22;6473;51.552;6.716;2023-03-23T03:21:17;12.10;99.90
12817;DHT22;6473;51.552;6.716;2023-03-23T03:23:53;12.10;99.90
12817;DHT22;6473;51.552;6.716;2023-03-23T03:26:23;12.10;99.90
12817;DHT22;6473;51.552;6.716;2023-03-23T03:29:18;13.10;99.90
12817;DHT22;6473;51.552;6.716;2023-03-23T03:31:49;12.00;99.90
12817;DHT22;6473;51.552;6.716;2023-03-23T03:34:24;12.10;99.90
12817;DHT22;6473;51.552;6.716;2023-03-23T03:36:57;12.10;99.90
12817;DHT22;6473;51.552;6.716;2023-03-23T03:39:26;12.00;99.90
12817;DHT22;6473;51.552;6.716;2023-03-23T03:41:55;13.20;99.90
12817;DHT22;6473;51.552;6.716;2023-03-23T03:44:28;13.80;99.90
12817;DHT22;6473;51.552;6.716;2023-03-23T03:46:55;13.30;99.90
12817;DHT22;6473;51.552;6.716;2023-03-23T03:49:24;13.60;99.90
12817;DHT22;6473;51.552;6.716;2023-03-23T03:51:54;12.10;99.90
12817;DHT22;6473;51.552;6.716;2023-03-23T03:54:30;12.30;99.90
12817;DHT22;6473;51.552;6.716;2023-03-23T03:56:56;12.10;99.90
12817;DHT22;6473;51.552;6.716;2023-03-23T03:59:42;12.10;99.90
12817;DHT22;6473;51.552;6.716;2023-03-23T04:02:09;13.60;99.90
12817;DHT22;6473;51.552;6.716;2023-03-23T04:04:40;12.10;99.90
12817;DHT22;6473;51.552;6.716;2023-03-23T04:07:11;12.20;99.90
12817;DHT22;6473;51.552;6.716;2023-03-23T04:09:40;13.40;99.90
12817;DHT22;6473;51.552;6.716;2023-03-23T04:12:13;12.10;99.90
12817;DHT22;6473;51.552;6.716;2023-03-23T04:15:11;12.10;99.90
12817;DHT22;6473;51.552;6.716;2023-03-23T04:17:39;12.00;99.90
12817;DHT22;6473;51.552;6.716;2023-03-23T04:20:10;12.10;99.90
12817;DHT22;6473;51.552;6.716;2023-03-23T04:22:43;12.10;99.90
12817;DHT22;6473;51.552;6.716;2023-03-23T04:25:16;12.20;99.90
12817;DHT22;6473;51.552;6.716;2023-03-23T04:27:47;12.20;99.90
12817;DHT22;6473;51.552;6.716;2023-03-23T04:30:21;12.10;99.90
12817;DHT22;6473;51.552;6.716;2023-03-23T04:33:00;12.20;99.90
12817;DHT22;6473;51.552;6.716;2023-03-23T04:35:32;12.20;99.90
12817;DHT22;6473;51.552;6.716;2023-03-23T04:38:20;12.20;99.90
12817;DHT22;6473;51.552;6.716;2023-03-23T04:40:55;12.20;99.90
12817;DHT22;6473;51.552;6.716;2023-03-23T04:43:44;12.20;99.90
12817;DHT22;6473;51.552;6.716;2023-03-23T04:46:26;12.20;99.90
12817;DHT22;6473;51.552;6.716;2023-03-23T04:49:00;11.30;99.90
12817;DHT22;6473;51.552;6.716;2023-03-23T04:51:35;12.20;99.90
12817;DHT22;6473;51.552;6.716;2023-03-23T04:54:19;12.30;99.90
12817;DHT22;6473;51.552;6.716;2023-03-23T04:56:50;13.30;99.90
12817;DHT22;6473;51.552;6.716;2023-03-23T04:59:19;12.40;99.90
12817;DHT22;6473;51.552;6.716;2023-03-23T05:02:02;12.40;99.90
12817;DHT22;6473;51.552;6.716;2023-03-23T05:04:30;12.30;99.90
12817;DHT22;6473;51.552;6.716;2023-03-23T05:07:04;12.30;99.90
12817;DHT22;6473;51.552;6.716;2023-03-23T05:09:37;12.30;99.90
12817;DHT22;6473;51.552;6.716;2023-03-23T05:12:09;12.40;99.90
12817;DHT22;6473;51.552;6.716;2023-03-23T05:14:48;12.30;99.90
12817;DHT22;6473;51.552;6.716;2023-03-23T05:17:23;12.30;99.90
12817;DHT22;6473;51.552;6.716;2023-03-23T05:19:54;12.40;99.90
12817;DHT22;6473;51.552;6.716;2023-03-23T05:22:40;13.00;99.90
12817;DHT22;6473;51.552;6.716;2023-03-23T05:25:11;12.40;99.90
12817;DHT22;6473;51.552;6.716;2023-03-23T05:27:47;12.40;99.90
12817;DHT22;6473;51.552;6.716;2023-03-23T05:30:25;12.50;99.90
12817;DHT22;6473;51.552;6.716;2023-03-23T05:33:00;12.40;99.90
12817;DHT22;6473;51.552;6.716;2023-03-23T05:35:48;12.50;99.90
12817;DHT22;6473;51.552;6.716;2023-03-23T05:38:21;12.40;99.90
12817;DHT22;6473;51.552;6.716;2023-03-23T05:40:50;12.40;99.90
12817;DHT22;6473;51.552;6.716;2023-03-23T05:43:24;14.50;99.90
12817;DHT22;6473;51.552;6.716;2023-03-23T05:46:10;13.80;99.90
12817;DHT22;6473;51.552;6.716;2023-03-23T05:48:39;12.80;99.90
12817;DHT22;6473;51.552;6.716;2023-03-23T05:51:12;12.30;99.90
12817;DHT22;6473;51.552;6.716;2023-03-23T05:53:45;12.40;99.90
12817;DHT22;6473;51.552;6.716;2023-03-23T05:56:21;12.30;99.90
12817;DHT22;6473;51.552;6.716;2023-03-23T05:59:15;12.40;99.90
12817;DHT22;6473;51.552;6.716;2023-03-23T06:01:45;12.40;99.90
12817;DHT22;6473;51.552;6.716;2023-03-23T06:04:13;12.40;99.90
12817;DHT22;6473;51.552;6.716;2023-03-23T06:07:00;12.40;99.90
12817;DHT22;6473;51.552;6.716;2023-03-23T06:09:28;12.30;99.90
12817;DHT22;6473;51.552;6.716;2023-03-23T06:12:30;12.40;99.90
12817;DHT22;6473;51.552;6.716;2023-03-23T06:15:00;12.40;99.90
12817;DHT22;6473;51.552;6.716;2023-03-23T06:17:50;12.40;99.90
12817;DHT22;6473;51.552;6.716;2023-03-23T06:22:52;12.30;99.90
12817;DHT22;6473;51.552;6.716;2023-03-23T06:25:28;12.40;99.90
12817;DHT22;6473;51.552;6.716;2023-03-23T06:27:57;10.40;99.90
12817;DHT22;6473;51.552;6.716;2023-03-23T06:30:25;14.10;99.90
12817;DHT22;6473;51.552;6.716;2023-03-23T06:33:01;12.40;99.90
12817;DHT22;6473;51.552;6.716;2023-03-23T06:35:59;12.30;99.90
12817;DHT22;6473;51.552;6.716;2023-03-23T06:38:46;12.40;99.90
12817;DHT22;6473;51.552;6.716;2023-03-23T06:41:34;12.40;99.90
12817;DHT22;6473;51.552;6.716;2023-03-23T06:44:02;12.80;99.90
12817;DHT22;6473;51.552;6.716;2023-03-23T06:46:32;12.40;99.90
12817;DHT22;6473;51.552;6.716;2023-03-23T06:49:18;12.40;99.90
12817;DHT22;6473;51.552;6.716;2023-03-23T06:51:54;12.50;99.90
12817;DHT22;6473;51.552;6.716;2023-03-23T06:54:29;12.40;99.90
12817;DHT22;6473;51.552;6.716;2023-03-23T06:56:59;13.80;99.90
12817;DHT22;6473;51.552;6.716;2023-03-23T06:59:28;12.40;99.90
12817;DHT22;6473;51.552;6.716;2023-03-23T07:01:55;13.90;99.90
12817;DHT22;6473;51.552;6.716;2023-03-23T07:04:22;12.50;99.90
12817;DHT22;6473;51.552;6.716;2023-03-23T07:07:02;12.50;99.90
12817;DHT22;6473;51.552;6.716;2023-03-23T07:09:34;12.50;99.90
12817;DHT22;6473;51.552;6.716;2023-03-23T07:12:02;13.10;99.90
12817;DHT22;6473;51.552;6.716;2023-03-23T07:14:35;12.50;99.90
12817;DHT22;6473;51.552;6.716;2023-03-23T07:17:03;12.50;99.90
12817;DHT22;6473;51.552;6.716;2023-03-23T07:19:35;12.60;99.90
12817;DHT22;6473;51.552;6.716;2023-03-23T07:22:04;13.20;99.90
12817;DHT22;6473;51.552;6.716;2023-03-23T07:24:31;12.60;99.90
12817;DHT22;6473;51.552;6.716;2023-03-23T07:27:10;13.20;99.90
12817;DHT22;6473;51.552;6.716;2023-03-23T07:29:40;13.20;99.90
12817;DHT22;6473;51.552;6.716;2023-03-23T07:32:14;12.60;99.90
12817;DHT22;6473;51.552;6.716;2023-03-23T07:34:41;12.60;99.90
12817;DHT22;6473;51.552;6.716;2023-03-23T07:37:21;13.10;99.90
12817;DHT22;6473;51.552;6.716;2023-03-23T07:39:49;13.60;99.90
12817;DHT22;6473;51.552;6.716;2023-03-23T07:42:15;13.40;99.90
12817;DHT22;6473;51.552;6.716;2023-03-23T07:44:57;13.00;99.90
12817;DHT22;6473;51.552;6.716;2023-03-23T07:47:23;12.80;99.90
12817;DHT22;6473;51.552;6.716;2023-03-23T07:49:51;12.80;99.90
12817;DHT22;6473;51.552;6.716;2023-03-23T07:52:34;12.80;99.90
12817;DHT22;6473;51.552;6.716;2023-03-23T07:55:05;12.80;99.90
12817;DHT22;6473;51.552;6.716;2023-03-23T07:57:46;12.80;99.90
12817;DHT22;6473;51.552;6.716;2023-03-23T08:00:16;13.00;99.90
12817;DHT22;6473;51.552;6.716;2023-03-23T08:02:44;12.80;99.90
12817;DHT22;6473;51.552;6.716;2023-03-23T08:05:30;15.20;99.90
12817;DHT22;6473;51.552;6.716;2023-03-23T08:08:16;13.40;99.90
12817;DHT22;6473;51.552;6.716;2023-03-23T08:11:03;14.10;99.90
12817;DHT22;6473;51.552;6.716;2023-03-23T08:13:51;12.80;99.90
12817;DHT22;6473;51.552;6.716;2023-03-23T08:16:40;12.80;99.90
12817;DHT22;6473;51.552;6.716;2023-03-23T08:19:30;13.10;99.90
12817;DHT22;6473;51.552;6.716;2023-03-23T08:22:21;12.80;99.90
12817;DHT22;6473;51.552;6.716;2023-03-23T08:25:14;12.80;99.90
12817;DHT22;6473;51.552;6.716;2023-03-23T08:28:04;12.90;99.90
12817;DHT22;6473;51.552;6.716;2023-03-23T08:30:52;12.70;99.90
12817;DHT22;6473;51.552;6.716;2023-03-23T08:33:35;12.50;99.90
12817;DHT22;6473;51.552;6.716;2023-03-23T08:36:29;14.50;99.90
12817;DHT22;6473;51.552;6.716;2023-03-23T08:39:08;12.50;99.90
12817;DHT22;6473;51.552;6.716;2023-03-23T08:41:58;12.50;99.90
12817;DHT22;6473;51.552;6.716;2023-03-23T08:44:52;12.60;99.90
12817;DHT22;6473;51.552;6.716;2023-03-23T08:47:39;12.60;99.90
12817;DHT22;6473;51.552;6.716;2023-03-23T08:50:37;12.60;99.90
12817;DHT22;6473;51.552;6.716;2023-03-23T08:53:23;13.10;99.90
12817;DHT22;6473;51.552;6.716;2023-03-23T08:56:10;12.70;99.90
12817;DHT22;6473;51.552;6.716;2023-03-23T08:59:11;12.70;99.90
12817;DHT22;6473;51.552;6.716;2023-03-23T09:02:00;13.30;99.90
12817;DHT22;6473;51.552;6.716;2023-03-23T09:11:16;12.70;99.90
12817;DHT22;6473;51.552;6.716;2023-03-23T09:13:43;12.80;99.90
12817;DHT22;6473;51.552;6.716;2023-03-23T09:16:11;12.70;99.90
12817;DHT22;6473;51.552;6.716;2023-03-23T09:18:38;11.50;99.90
12817;DHT22;6473;51.552;6.716;2023-03-23T09:21:06;11.30;99.90
12817;DHT22;6473;51.552;6.716;2023-03-23T09:23:33;10.20;99.90
12817;DHT22;6473;51.552;6.716;2023-03-23T09:26:02;10.00;99.90
12817;DHT22;6473;51.552;6.716;2023-03-23T09:28:31;9.70;99.90
12817;DHT22;6473;51.552;6.716;2023-03-23T09:30:58;9.60;99.90
12817;DHT22;6473;51.552;6.716;2023-03-23T09:33:26;12.00;99.90
12817;DHT22;6473;51.552;6.716;2023-03-23T09:35:54;9.60;99.90
12817;DHT22;6473;51.552;6.716;2023-03-23T09:38:22;9.60;99.90
12817;DHT22;6473;51.552;6.716;2023-03-23T09:40:55;9.70;99.90
12817;DHT22;6473;51.552;6.716;2023-03-23T09:43:45;9.70;99.90
12817;DHT22;6473;51.552;6.716;2023-03-23T09:46:32;11.20;99.90
12817;DHT22;6473;51.552;6.716;2023-03-23T09:49:04;9.80;99.90
12817;DHT22;6473;51.552;6.716;2023-03-23T09:51:41;10.10;99.90
12817;DHT22;6473;51.552;6.716;2023-03-23T09:54:18;10.20;99.90
12817;DHT22;6473;51.552;6.716;2023-03-23T09:56:46;10.30;99.90
12817;DHT22;6473;51.552;6.716;2023-03-23T09:59:19;10.30;99.90
12817;DHT22;6473;51.552;6.716;2023-03-23T10:01:48;10.40;99.90
12817;DHT22;6473;51.552;6.716;2023-03-23T10:04:25;10.40;99.90
12817;DHT22;6473;51.552;6.716;2023-03-23T10:06:58;10.60;99.90
12817;DHT22;6473;51.552;6.716;2023-03-23T10:09:26;10.60;99.90
12817;DHT22;6473;51.552;6.716;2023-03-23T10:12:02;10.60;99.90
12817;DHT22;6473;51.552;6.716;2023-03-23T10:17:28;10.70;99.90
12817;DHT22;6473;51.552;6.716;2023-03-23T10:20:03;10.70;99.90
12817;DHT22;6473;51.552;6.716;2023-03-23T10:22:39;10.60;99.90
12817;DHT22;6473;51.552;6.716;2023-03-23T10:25:16;10.60;99.90
12817;DHT22;6473;51.552;6.716;2023-03-23T10:27:45;10.60;99.90
12817;DHT22;6473;51.552;6.716;2023-03-23T10:30:19;10.60;99.90
12817;DHT22;6473;51.552;6.716;2023-03-23T10:32:51;10.50;99.90
12817;DHT22;6473;51.552;6.716;2023-03-23T10:35:23;10.50;99.90
12817;DHT22;6473;51.552;6.716;2023-03-23T10:37:56;10.50;99.90
12817;DHT22;6473;51.552;6.716;2023-03-23T10:40:27;10.40;99.90
12817;DHT22;6473;51.552;6.716;2023-03-23T10:42:54;10.50;99.90
12817;DHT22;6473;51.552;6.716;2023-03-23T10:45:25;10.50;99.90
12817;DHT22;6473;51.552;6.716;2023-03-23T10:47:57;10.60;99.90
12817;DHT22;6473;51.552;6.716;2023-03-23T10:50:27;10.70;99.90
12817;DHT22;6473;51.552;6.716;2023-03-23T10:52:57;10.80;99.90
12817;DHT22;6473;51.552;6.716;2023-03-23T10:55:35;13.80;99.90
12817;DHT22;6473;51.552;6.716;2023-03-23T10:58:05;10.90;99.90
12817;DHT22;6473;51.552;6.716;2023-03-23T11:00:40;11.10;99.90
12817;DHT22;6473;51.552;6.716;2023-03-23T11:03:38;11.20;99.90
12817;DHT22;6473;51.552;6.716;2023-03-23T11:06:07;11.30;99.90
12817;DHT22;6473;51.552;6.716;2023-03-23T11:08:46;11.60;99.90
12817;DHT22;6473;51.552;6.716;2023-03-23T11:11:16;11.50;99.90
12817;DHT22;6473;51.552;6.716;2023-03-23T11:13:45;11.50;99.90
12817;DHT22;6473;51.552;6.716;2023-03-23T11:16:24;11.40;99.90
12817;DHT22;6473;51.552;6.716;2023-03-23T11:18:51;11.20;99.90
12817;DHT22;6473;51.552;6.716;2023-03-23T11:21:20;11.20;99.90
12817;DHT22;6473;51.552;6.716;2023-03-23T11:23:50;11.00;99.90
12817;DHT22;6473;51.552;6.716;2023-03-23T11:26:21;11.00;99.90
12817;DHT22;6473;51.552;6.716;2023-03-23T11:28:53;11.10;99.90
12817;DHT22;6473;51.552;6.716;2023-03-23T11:31:24;11.10;99.90
12817;DHT22;6473;51.552;6.716;2023-03-23T11:33:56;11.10;99.90
12817;DHT22;6473;51.552;6.716;2023-03-23T11:36:30;10.90;99.90
12817;DHT22;6473;51.552;6.716;2023-03-23T11:38:57;11.00;99.90
12817;DHT22;6473;51.552;6.716;2023-03-23T11:41:31;11.00;99.90
12817;DHT22;6473;51.552;6.716;2023-03-23T11:44:04;11.00;99.90
12817;DHT22;6473;51.552;6.716;2023-03-23T11:46:42;11.10;99.90
12817;DHT22;6473;51.552;6.716;2023-03-23T11:49:15;12.00;99.90
12817;DHT22;6473;51.552;6.716;2023-03-23T11:51:48;14.20;99.90
12817;DHT22;6473;51.552;6.716;2023-03-23T11:54:20;14.00;99.90
12817;DHT22;6473;51.552;6.716;2023-03-23T11:56:48;12.80;99.90
12817;DHT22;6473;51.552;6.716;2023-03-23T11:59:17;12.60;99.90
12817;DHT22;6473;51.552;6.716;2023-03-23T12:01:53;14.50;99.90
12817;DHT22;6473;51.552;6.716;2023-03-23T12:04:33;12.80;99.90
12817;DHT22;6473;51.552;6.716;2023-03-23T12:07:18;12.50;99.90
12817;DHT22;6473;51.552;6.716;2023-03-23T12:09:55;12.60;99.90
12817;DHT22;6473;51.552;6.716;2023-03-23T12:12:31;13.70;99.90
12817;DHT22;6473;51.552;6.716;2023-03-23T12:15:08;12.40;99.90
12817;DHT22;6473;51.552;6.716;2023-03-23T12:17:45;12.40;99.90
12817;DHT22;6473;51.552;6.716;2023-03-23T12:20:21;12.30;99.90
12817;DHT22;6473;51.552;6.716;2023-03-23T12:22:59;12.20;99.90
12817;DHT22;6473;51.552;6.716;2023-03-23T12:32:05;12.30;99.90
12817;DHT22;6473;51.552;6.716;2023-03-23T12:34:41;12.50;99.90
12817;DHT22;6473;51.552;6.716;2023-03-23T12:37:19;12.50;99.90
12817;DHT22;6473;51.552;6.716;2023-03-23T12:39:53;12.40;99.90
12817;DHT22;6473;51.552;6.716;2023-03-23T12:42:31;12.50;99.90
12817;DHT22;6473;51.552;6.716;2023-03-23T12:45:05;12.60;99.90
12817;DHT22;6473;51.552;6.716;2023-03-23T12:47:41;12.80;99.90
12817;DHT22;6473;51.552;6.716;2023-03-23T12:50:14;14.20;99.90
12817;DHT22;6473;51.552;6.716;2023-03-23T12:52:48;14.30;99.90
12817;DHT22;6473;51.552;6.716;2023-03-23T12:55:19;13.10;99.90
12817;DHT22;6473;51.552;6.716;2023-03-23T12:57:53;13.10;99.90
12817;DHT22;6473;51.552;6.716;2023-03-23T13:00:25;13.30;99.90
12817;DHT22;6473;51.552;6.716;2023-03-23T13:02:57;14.00;99.90
12817;DHT22;6473;51.552;6.716;2023-03-23T13:05:33;14.50;99.90
12817;DHT22;6473;51.552;6.716;2023-03-23T13:08:05;16.40;99.90
12817;DHT22;6473;51.552;6.716;2023-03-23T13:10:36;16.60;99.90
12817;DHT22;6473;51.552;6.716;2023-03-23T13:13:10;16.80;99.90
12817;DHT22;6473;51.552;6.716;2023-03-23T13:15:48;16.60;99.90
12817;DHT22;6473;51.552;6.716;2023-03-23T13:18:21;17.60;99.90
12817;DHT22;6473;51.552;6.716;2023-03-23T13:20:56;15.70;99.90
12817;DHT22;6473;51.552;6.716;2023-03-23T13:23:26;15.70;99.90
12817;DHT22;6473;51.552;6.716;2023-03-23T13:25:59;15.10;99.90
12817;DHT22;6473;51.552;6.716;2023-03-23T13:28:28;16.20;99.90
12817;DHT22;6473;51.552;6.716;2023-03-23T13:30:59;15.60;99.90
12817;DHT22;6473;51.552;6.716;2023-03-23T13:33:30;16.30;99.90
12817;DHT22;6473;51.552;6.716;2023-03-23T13:36:03;16.50;99.90
12817;DHT22;6473;51.552;6.716;2023-03-23T13:38:33;17.40;99.90
12817;DHT22;6473;51.552;6.716;2023-03-23T13:41:07;17.60;99.90
12817;DHT22;6473;51.552;6.716;2023-03-23T13:43:36;17.50;99.90
12817;DHT22;6473;51.552;6.716;2023-03-23T13:46:13;16.60;99.90
12817;DHT22;6473;51.552;6.716;2023-03-23T13:49:04;15.90;99.90
12817;DHT22;6473;51.552;6.716;2023-03-23T13:51:36;15.20;99.90
12817;DHT22;6473;51.552;6.716;2023-03-23T13:54:24;15.10;99.90
12817;DHT22;6473;51.552;6.716;2023-03-23T13:56:54;14.90;99.90
12817;DHT22;6473;51.552;6.716;2023-03-23T13:59:31;15.50;99.90
12817;DHT22;6473;51.552;6.716;2023-03-23T14:02:30;16.00;99.90
12817;DHT22;6473;51.552;6.716;2023-03-23T14:05:21;16.50;99.90
12817;DHT22;6473;51.552;6.716;2023-03-23T14:07:57;16.40;99.90
12817;DHT22;6473;51.552;6.716;2023-03-23T14:10:31;16.10;99.90
12817;DHT22;6473;51.552;6.716;2023-03-23T14:13:00;15.20;99.90
12817;DHT22;6473;51.552;6.716;2023-03-23T14:15:29;16.70;99.90
12817;DHT22;6473;51.552;6.716;2023-03-23T14:17:56;17.50;99.90
12817;DHT22;6473;51.552;6.716;2023-03-23T14:20:26;16.10;99.90
12817;DHT22;6473;51.552;6.716;2023-03-23T14:22:59;14.70;99.90
12817;DHT22;6473;51.552;6.716;2023-03-23T14:25:29;15.10;99.90
12817;DHT22;6473;51.552;6.716;2023-03-23T14:27:56;16.00;99.90
12817;DHT22;6473;51.552;6.716;2023-03-23T14:30:24;16.00;99.90
12817;DHT22;6473;51.552;6.716;2023-03-23T14:32:52;16.00;99.90
12817;DHT22;6473;51.552;6.716;2023-03-23T14:35:24;16.50;99.90
12817;DHT22;6473;51.552;6.716;2023-03-23T14:37:52;16.70;99.90
12817;DHT22;6473;51.552;6.716;2023-03-23T14:40:20;19.80;99.90
12817;DHT22;6473;51.552;6.716;2023-03-23T14:42:49;16.60;99.90
12817;DHT22;6473;51.552;6.716;2023-03-23T14:45:18;16.30;99.90
12817;DHT22;6473;51.552;6.716;2023-03-23T14:47:47;16.10;99.90
12817;DHT22;6473;51.552;6.716;2023-03-23T14:50:28;15.70;99.90
12817;DHT22;6473;51.552;6.716;2023-03-23T14:53:03;15.90;99.90
12817;DHT22;6473;51.552;6.716;2023-03-23T14:55:31;16.90;99.90
12817;DHT22;6473;51.552;6.716;2023-03-23T14:58:06;16.40;99.90
12817;DHT22;6473;51.552;6.716;2023-03-23T15:00:37;15.40;99.90
12817;DHT22;6473;51.552;6.716;2023-03-23T15:03:07;15.20;99.90
12817;DHT22;6473;51.552;6.716;2023-03-23T15:05:41;15.10;99.90
12817;DHT22;6473;51.552;6.716;2023-03-23T15:08:13;15.00;99.90
12817;DHT22;6473;51.552;6.716;2023-03-23T15:10:42;16.10;99.90
12817;DHT22;6473;51.552;6.716;2023-03-23T15:13:17;15.00;99.90
12817;DHT22;6473;51.552;6.716;2023-03-23T15:15:43;15.00;99.90
12817;DHT22;6473;51.552;6.716;2023-03-23T15:18:28;15.00;99.90
12817;DHT22;6473;51.552;6.716;2023-03-23T15:20:56;15.10;99.90
12817;DHT22;6473;51.552;6.716;2023-03-23T15:23:27;15.00;99.90
12817;DHT22;6473;51.552;6.716;2023-03-23T15:25:57;15.10;99.90
12817;DHT22;6473;51.552;6.716;2023-03-23T15:28:29;15.00;99.90
12817;DHT22;6473;51.552;6.716;2023-03-23T15:30:59;14.90;99.90
12817;DHT22;6473;51.552;6.716;2023-03-23T15:33:27;14.80;99.90
12817;DHT22;6473;51.552;6.716;2023-03-23T15:36:04;16.30;99.90
12817;DHT22;6473;51.552;6.716;2023-03-23T15:38:33;15.60;99.90
12817;DHT22;6473;51.552;6.716;2023-03-23T15:41:04;15.70;99.90
12817;DHT22;6473;51.552;6.716;2023-03-23T15:43:32;15.70;99.90
12817;DHT22;6473;51.552;6.716;2023-03-23T15:46:01;15.80;99.90
12817;DHT22;6473;51.552;6.716;2023-03-23T15:48:30;16.30;99.90
12817;DHT22;6473;51.552;6.716;2023-03-23T15:50:57;15.40;99.90
12817;DHT22;6473;51.552;6.716;2023-03-23T15:53:30;15.30;99.90
12817;DHT22;6473;51.552;6.716;2023-03-23T15:55:59;17.00;99.90
12817;DHT22;6473;51.552;6.716;2023-03-23T15:58:29;15.30;99.90
12817;DHT22;6473;51.552;6.716;2023-03-23T16:00:56;15.30;99.90
12817;DHT22;6473;51.552;6.716;2023-03-23T16:03:26;14.60;99.90
12817;DHT22;6473;51.552;6.716;2023-03-23T16:05:55;14.80;99.90
12817;DHT22;6473;51.552;6.716;2023-03-23T16:08:24;14.60;99.90
12817;DHT22;6473;51.552;6.716;2023-03-23T16:10:51;14.70;99.90
12817;DHT22;6473;51.552;6.716;2023-03-23T16:13:18;15.50;99.90
12817;DHT22;6473;51.552;6.716;2023-03-23T16:15:47;14.60;99.90
12817;DHT22;6473;51.552;6.716;2023-03-23T16:18:17;14.70;99.90
12817;DHT22;6473;51.552;6.716;2023-03-23T16:20:47;14.70;99.90
12817;DHT22;6473;51.552;6.716;2023-03-23T16:23:14;18.20;99.90
12817;DHT22;6473;51.552;6.716;2023-03-23T16:25:41;14.60;99.90
12817;DHT22;6473;51.552;6.716;2023-03-23T16:28:10;14.60;99.90
12817;DHT22;6473;51.552;6.716;2023-03-23T16:30:38;14.60;99.90
12817;DHT22;6473;51.552;6.716;2023-03-23T16:33:06;14.60;99.90
12817;DHT22;6473;51.552;6.716;2023-03-23T16:35:34;14.50;99.90
12817;DHT22;6473;51.552;6.716;2023-03-23T16:38:02;14.50;99.90
12817;DHT22;6473;51.552;6.716;2023-03-23T16:40:29;16.00;99.90
12817;DHT22;6473;51.552;6.716;2023-03-23T16:42:55;14.50;99.90
12817;DHT22;6473;51.552;6.716;2023-03-23T16:45:22;14.50;99.90
12817;DHT22;6473;51.552;6.716;2023-03-23T16:47:51;14.50;99.90
12817;DHT22;6473;51.552;6.716;2023-03-23T16:50:21;14.50;99.90
12817;DHT22;6473;51.552;6.716;2023-03-23T16:52:48;14.40;99.90